Pagrindinis puslapis
METAR-TAF:

METAR-TAF

Oro uostai :

Monte Scuro, Italija

platuma: 39-20N, ilguma: 016-24E, Aukštis: 1710 m

Dabartinis oras

Ataskaita buvo paskelbta 41 minutes, ne 02:55 UTC
Vėjas 13 kt iš Vakarų
Temperatūra 0°C
Drėgmė 100%
Slėgis 1021 hPa
Matomumas mažesnis nei 50 m
įšaldymas rūko

METAR: LIBQ 180255Z 27013KT 0000 FZFG VV/// 00/00 Q1021 RMK MON INVIS VAL INVIS VIS MIN 0000

Laikas: 04:36 (03:36 UTC)


TAF: trūkstamas

Orai ataskaitas ir orų prognozės (METAR, TAF).

turimą stotys yra geltonos ir raudonos taškus žemėlapyje.

Perkelti pele per norėdami pamatyti stoties vardą.

Tada spustelėkite, norėdami matyti oro stebėjimo ir prognozės.

Norėdami pakeisti žemėlapį: spustelėkite ant žalios mygtukų su juodo kryžiaus žemyn,; žalią mygtuką su brūkšneliu, jei norite nutolinti; arba žalių rodyklių gretimoms žemėlapius.


METAR-TAF: